sensor_id;sensor_type;location;lat;lon;timestamp;P1;durP1;ratioP1;P2;durP2;ratioP2
13419;SDS011;6781;58.440;15.470;2023-05-16T00:01:34;6.45;;;5.57;;
13419;SDS011;6781;58.440;15.470;2023-05-16T00:04:02;7.88;;;5.72;;
13419;SDS011;6781;58.440;15.470;2023-05-16T00:06:29;7.20;;;5.32;;
13419;SDS011;6781;58.440;15.470;2023-05-16T00:08:56;6.38;;;5.50;;
13419;SDS011;6781;58.440;15.470;2023-05-16T00:11:23;6.30;;;5.47;;
13419;SDS011;6781;58.440;15.470;2023-05-16T00:13:52;8.48;;;5.70;;
13419;SDS011;6781;58.440;15.470;2023-05-16T00:16:19;7.88;;;5.90;;
13419;SDS011;6781;58.440;15.470;2023-05-16T00:18:46;6.13;;;5.40;;
13419;SDS011;6781;58.440;15.470;2023-05-16T00:21:13;6.20;;;5.60;;
13419;SDS011;6781;58.440;15.470;2023-05-16T00:23:41;5.95;;;5.30;;
13419;SDS011;6781;58.440;15.470;2023-05-16T00:26:08;7.60;;;5.95;;
13419;SDS011;6781;58.440;15.470;2023-05-16T00:28:35;7.35;;;6.00;;
13419;SDS011;6781;58.440;15.470;2023-05-16T00:31:04;8.10;;;5.80;;
13419;SDS011;6781;58.440;15.470;2023-05-16T00:33:32;6.03;;;5.45;;
13419;SDS011;6781;58.440;15.470;2023-05-16T00:35:59;6.60;;;6.03;;
13419;SDS011;6781;58.440;15.470;2023-05-16T00:38:27;6.53;;;6.03;;
13419;SDS011;6781;58.440;15.470;2023-05-16T00:40:54;6.55;;;5.95;;
13419;SDS011;6781;58.440;15.470;2023-05-16T00:43:20;6.90;;;5.60;;
13419;SDS011;6781;58.440;15.470;2023-05-16T00:45:47;6.78;;;6.07;;
13419;SDS011;6781;58.440;15.470;2023-05-16T00:48:16;6.63;;;6.07;;
13419;SDS011;6781;58.440;15.470;2023-05-16T00:50:45;6.55;;;5.88;;
13419;SDS011;6781;58.440;15.470;2023-05-16T00:53:17;5.53;;;5.10;;
13419;SDS011;6781;58.440;15.470;2023-05-16T00:55:46;6.57;;;5.85;;
13419;SDS011;6781;58.440;15.470;2023-05-16T00:58:13;6.70;;;5.82;;
13419;SDS011;6781;58.440;15.470;2023-05-16T01:00:41;7.13;;;5.72;;
13419;SDS011;6781;58.440;15.470;2023-05-16T01:03:11;6.20;;;5.70;;
13419;SDS011;6781;58.440;15.470;2023-05-16T01:05:40;5.78;;;5.20;;
13419;SDS011;6781;58.440;15.470;2023-05-16T01:08:07;7.13;;;5.50;;
13419;SDS011;6781;58.440;15.470;2023-05-16T01:10:35;6.15;;;5.65;;
13419;SDS011;6781;58.440;15.470;2023-05-16T01:13:08;7.22;;;6.05;;
13419;SDS011;6781;58.440;15.470;2023-05-16T01:15:40;6.85;;;6.18;;
13419;SDS011;6781;58.440;15.470;2023-05-16T01:18:15;6.90;;;6.20;;
13419;SDS011;6781;58.440;15.470;2023-05-16T01:20:53;6.75;;;5.97;;
13419;SDS011;6781;58.440;15.470;2023-05-16T01:23:32;6.30;;;5.80;;
13419;SDS011;6781;58.440;15.470;2023-05-16T01:26:16;6.32;;;5.80;;
13419;SDS011;6781;58.440;15.470;2023-05-16T01:28:47;9.27;;;6.18;;
13419;SDS011;6781;58.440;15.470;2023-05-16T01:31:15;5.88;;;5.38;;
13419;SDS011;6781;58.440;15.470;2023-05-16T01:33:43;6.97;;;6.38;;
13419;SDS011;6781;58.440;15.470;2023-05-16T01:36:12;9.20;;;6.22;;
13419;SDS011;6781;58.440;15.470;2023-05-16T01:38:49;7.68;;;6.97;;
13419;SDS011;6781;58.440;15.470;2023-05-16T01:41:29;6.93;;;6.18;;
13419;SDS011;6781;58.440;15.470;2023-05-16T01:44:05;7.18;;;6.55;;
13419;SDS011;6781;58.440;15.470;2023-05-16T01:46:37;9.00;;;6.25;;
13419;SDS011;6781;58.440;15.470;2023-05-16T01:49:09;6.35;;;5.75;;
13419;SDS011;6781;58.440;15.470;2023-05-16T01:51:42;7.57;;;6.80;;
13419;SDS011;6781;58.440;15.470;2023-05-16T01:54:15;7.40;;;6.72;;
13419;SDS011;6781;58.440;15.470;2023-05-16T01:56:48;7.07;;;6.47;;
13419;SDS011;6781;58.440;15.470;2023-05-16T01:59:18;7.15;;;5.80;;
13419;SDS011;6781;58.440;15.470;2023-05-16T02:01:47;15.55;;;6.47;;
13419;SDS011;6781;58.440;15.470;2023-05-16T02:04:14;6.47;;;5.88;;
13419;SDS011;6781;58.440;15.470;2023-05-16T02:09:17;8.43;;;6.93;;
13419;SDS011;6781;58.440;15.470;2023-05-16T02:11:44;6.60;;;6.10;;
13419;SDS011;6781;58.440;15.470;2023-05-16T02:14:13;8.18;;;6.65;;
13419;SDS011;6781;58.440;15.470;2023-05-16T02:16:40;8.13;;;6.32;;
13419;SDS011;6781;58.440;15.470;2023-05-16T02:19:07;6.43;;;5.93;;
13419;SDS011;6781;58.440;15.470;2023-05-16T02:21:34;5.95;;;5.45;;
13419;SDS011;6781;58.440;15.470;2023-05-16T02:24:01;6.68;;;6.00;;
13419;SDS011;6781;58.440;15.470;2023-05-16T02:26:29;7.93;;;7.13;;
13419;SDS011;6781;58.440;15.470;2023-05-16T02:28:57;7.60;;;6.88;;
13419;SDS011;6781;58.440;15.470;2023-05-16T02:31:24;6.07;;;5.55;;
13419;SDS011;6781;58.440;15.470;2023-05-16T02:33:52;6.18;;;5.68;;
13419;SDS011;6781;58.440;15.470;2023-05-16T02:36:19;6.65;;;6.13;;
13419;SDS011;6781;58.440;15.470;2023-05-16T02:38:46;6.95;;;6.30;;
13419;SDS011;6781;58.440;15.470;2023-05-16T02:41:13;7.43;;;6.30;;
13419;SDS011;6781;58.440;15.470;2023-05-16T02:43:40;8.35;;;7.00;;
13419;SDS011;6781;58.440;15.470;2023-05-16T02:46:20;6.97;;;6.40;;
13419;SDS011;6781;58.440;15.470;2023-05-16T02:48:48;7.07;;;6.38;;
13419;SDS011;6781;58.440;15.470;2023-05-16T02:51:16;6.65;;;6.07;;
13419;SDS011;6781;58.440;15.470;2023-05-16T02:53:44;6.28;;;5.78;;
13419;SDS011;6781;58.440;15.470;2023-05-16T02:56:11;7.43;;;6.70;;
13419;SDS011;6781;58.440;15.470;2023-05-16T02:58:38;6.72;;;6.13;;
13419;SDS011;6781;58.440;15.470;2023-05-16T03:01:05;6.45;;;5.85;;
13419;SDS011;6781;58.440;15.470;2023-05-16T03:03:34;6.82;;;6.18;;
13419;SDS011;6781;58.440;15.470;2023-05-16T03:06:01;6.68;;;6.10;;
13419;SDS011;6781;58.440;15.470;2023-05-16T03:08:29;8.27;;;6.50;;
13419;SDS011;6781;58.440;15.470;2023-05-16T03:10:56;6.20;;;5.68;;
13419;SDS011;6781;58.440;15.470;2023-05-16T03:13:23;6.50;;;5.82;;
13419;SDS011;6781;58.440;15.470;2023-05-16T03:15:52;6.65;;;6.03;;
13419;SDS011;6781;58.440;15.470;2023-05-16T03:18:19;6.70;;;5.97;;
13419;SDS011;6781;58.440;15.470;2023-05-16T03:20:48;6.90;;;6.28;;
13419;SDS011;6781;58.440;15.470;2023-05-16T03:23:17;5.72;;;5.22;;
13419;SDS011;6781;58.440;15.470;2023-05-16T03:25:44;6.30;;;5.68;;
13419;SDS011;6781;58.440;15.470;2023-05-16T03:28:11;5.30;;;4.90;;
13419;SDS011;6781;58.440;15.470;2023-05-16T03:30:39;6.15;;;5.55;;
13419;SDS011;6781;58.440;15.470;2023-05-16T03:33:06;9.85;;;6.53;;
13419;SDS011;6781;58.440;15.470;2023-05-16T03:35:33;5.82;;;5.00;;
13419;SDS011;6781;58.440;15.470;2023-05-16T03:38:03;5.82;;;5.28;;
13419;SDS011;6781;58.440;15.470;2023-05-16T03:40:30;6.30;;;5.70;;
13419;SDS011;6781;58.440;15.470;2023-05-16T03:42:57;6.95;;;6.30;;
13419;SDS011;6781;58.440;15.470;2023-05-16T03:45:24;6.35;;;5.55;;
13419;SDS011;6781;58.440;15.470;2023-05-16T03:47:51;6.85;;;6.18;;
13419;SDS011;6781;58.440;15.470;2023-05-16T03:50:18;6.93;;;6.22;;
13419;SDS011;6781;58.440;15.470;2023-05-16T03:52:45;6.13;;;5.65;;
13419;SDS011;6781;58.440;15.470;2023-05-16T03:55:13;5.93;;;5.38;;
13419;SDS011;6781;58.440;15.470;2023-05-16T03:57:41;6.28;;;5.80;;
13419;SDS011;6781;58.440;15.470;2023-05-16T04:00:08;6.18;;;5.60;;
13419;SDS011;6781;58.440;15.470;2023-05-16T04:02:36;9.63;;;7.28;;
13419;SDS011;6781;58.440;15.470;2023-05-16T04:05:06;7.85;;;6.53;;
13419;SDS011;6781;58.440;15.470;2023-05-16T04:07:34;7.13;;;6.47;;
13419;SDS011;6781;58.440;15.470;2023-05-16T04:10:01;6.60;;;6.00;;
13419;SDS011;6781;58.440;15.470;2023-05-16T04:12:30;5.57;;;5.07;;
13419;SDS011;6781;58.440;15.470;2023-05-16T04:14:57;7.07;;;6.25;;
13419;SDS011;6781;58.440;15.470;2023-05-16T04:17:24;6.60;;;6.10;;
13419;SDS011;6781;58.440;15.470;2023-05-16T04:19:51;6.90;;;6.20;;
13419;SDS011;6781;58.440;15.470;2023-05-16T04:22:19;6.38;;;5.78;;
13419;SDS011;6781;58.440;15.470;2023-05-16T04:24:47;6.93;;;6.22;;
13419;SDS011;6781;58.440;15.470;2023-05-16T04:27:14;6.78;;;6.18;;
13419;SDS011;6781;58.440;15.470;2023-05-16T04:29:44;6.60;;;6.00;;
13419;SDS011;6781;58.440;15.470;2023-05-16T04:32:11;6.93;;;6.28;;
13419;SDS011;6781;58.440;15.470;2023-05-16T04:34:38;6.25;;;5.43;;
13419;SDS011;6781;58.440;15.470;2023-05-16T04:37:05;6.15;;;5.63;;
13419;SDS011;6781;58.440;15.470;2023-05-16T04:39:34;6.45;;;5.95;;
13419;SDS011;6781;58.440;15.470;2023-05-16T04:42:04;6.97;;;6.30;;
13419;SDS011;6781;58.440;15.470;2023-05-16T04:44:34;7.05;;;6.22;;
13419;SDS011;6781;58.440;15.470;2023-05-16T04:47:05;6.35;;;5.75;;
13419;SDS011;6781;58.440;15.470;2023-05-16T04:49:32;5.88;;;5.38;;
13419;SDS011;6781;58.440;15.470;2023-05-16T04:52:00;7.32;;;6.63;;
13419;SDS011;6781;58.440;15.470;2023-05-16T04:54:37;5.85;;;5.35;;
13419;SDS011;6781;58.440;15.470;2023-05-16T04:57:14;6.65;;;6.15;;
13419;SDS011;6781;58.440;15.470;2023-05-16T04:59:44;6.70;;;6.15;;
13419;SDS011;6781;58.440;15.470;2023-05-16T05:02:12;6.30;;;5.70;;
13419;SDS011;6781;58.440;15.470;2023-05-16T05:04:39;5.97;;;5.30;;
13419;SDS011;6781;58.440;15.470;2023-05-16T05:07:10;7.00;;;6.30;;
13419;SDS011;6781;58.440;15.470;2023-05-16T05:09:38;6.53;;;6.00;;
13419;SDS011;6781;58.440;15.470;2023-05-16T05:12:11;6.68;;;6.03;;
13419;SDS011;6781;58.440;15.470;2023-05-16T05:14:38;5.95;;;5.35;;
13419;SDS011;6781;58.440;15.470;2023-05-16T05:17:05;6.70;;;5.60;;
13419;SDS011;6781;58.440;15.470;2023-05-16T05:19:33;6.88;;;5.88;;
13419;SDS011;6781;58.440;15.470;2023-05-16T05:22:01;6.28;;;5.70;;
13419;SDS011;6781;58.440;15.470;2023-05-16T05:24:28;5.90;;;5.22;;
13419;SDS011;6781;58.440;15.470;2023-05-16T05:26:55;7.03;;;5.78;;
13419;SDS011;6781;58.440;15.470;2023-05-16T05:29:22;7.15;;;6.32;;
13419;SDS011;6781;58.440;15.470;2023-05-16T05:31:50;6.28;;;5.75;;
13419;SDS011;6781;58.440;15.470;2023-05-16T05:34:22;6.40;;;5.78;;
13419;SDS011;6781;58.440;15.470;2023-05-16T05:36:53;10.52;;;5.82;;
13419;SDS011;6781;58.440;15.470;2023-05-16T05:39:20;7.72;;;6.10;;
13419;SDS011;6781;58.440;15.470;2023-05-16T05:41:50;6.45;;;5.88;;
13419;SDS011;6781;58.440;15.470;2023-05-16T05:44:19;6.30;;;5.80;;
13419;SDS011;6781;58.440;15.470;2023-05-16T05:46:46;7.13;;;6.32;;
13419;SDS011;6781;58.440;15.470;2023-05-16T05:49:13;6.32;;;5.72;;
13419;SDS011;6781;58.440;15.470;2023-05-16T05:51:41;8.90;;;6.38;;
13419;SDS011;6781;58.440;15.470;2023-05-16T05:54:10;6.93;;;6.32;;
13419;SDS011;6781;58.440;15.470;2023-05-16T05:56:37;7.57;;;6.97;;
13419;SDS011;6781;58.440;15.470;2023-05-16T05:59:04;8.18;;;7.00;;
13419;SDS011;6781;58.440;15.470;2023-05-16T06:01:31;8.30;;;7.05;;
13419;SDS011;6781;58.440;15.470;2023-05-16T06:04:06;7.15;;;6.55;;
13419;SDS011;6781;58.440;15.470;2023-05-16T06:06:33;8.45;;;7.50;;
13419;SDS011;6781;58.440;15.470;2023-05-16T06:09:09;7.65;;;6.95;;
13419;SDS011;6781;58.440;15.470;2023-05-16T06:12:00;7.22;;;6.63;;
13419;SDS011;6781;58.440;15.470;2023-05-16T06:14:54;6.40;;;5.90;;
13419;SDS011;6781;58.440;15.470;2023-05-16T06:17:29;6.68;;;6.05;;
13419;SDS011;6781;58.440;15.470;2023-05-16T06:20:39;6.68;;;6.03;;
13419;SDS011;6781;58.440;15.470;2023-05-16T06:23:25;6.65;;;6.10;;
13419;SDS011;6781;58.440;15.470;2023-05-16T06:30:09;9.65;;;6.28;;
13419;SDS011;6781;58.440;15.470;2023-05-16T06:32:43;6.50;;;5.82;;
13419;SDS011;6781;58.440;15.470;2023-05-16T06:35:13;9.75;;;6.30;;
13419;SDS011;6781;58.440;15.470;2023-05-16T06:37:50;8.30;;;6.03;;
13419;SDS011;6781;58.440;15.470;2023-05-16T06:40:22;6.80;;;6.20;;
13419;SDS011;6781;58.440;15.470;2023-05-16T06:43:09;7.38;;;5.88;;
13419;SDS011;6781;58.440;15.470;2023-05-16T06:45:41;6.00;;;5.40;;
13419;SDS011;6781;58.440;15.470;2023-05-16T06:48:12;7.07;;;6.32;;
13419;SDS011;6781;58.440;15.470;2023-05-16T06:50:39;6.50;;;5.90;;
13419;SDS011;6781;58.440;15.470;2023-05-16T06:53:07;7.07;;;5.85;;
13419;SDS011;6781;58.440;15.470;2023-05-16T06:55:39;6.60;;;5.63;;
13419;SDS011;6781;58.440;15.470;2023-05-16T06:58:32;7.75;;;5.90;;
13419;SDS011;6781;58.440;15.470;2023-05-16T07:01:01;6.55;;;5.95;;
13419;SDS011;6781;58.440;15.470;2023-05-16T07:03:28;5.85;;;5.43;;
13419;SDS011;6781;58.440;15.470;2023-05-16T07:06:13;7.75;;;5.22;;
13419;SDS011;6781;58.440;15.470;2023-05-16T07:09:02;6.30;;;5.80;;
13419;SDS011;6781;58.440;15.470;2023-05-16T07:15:07;8.38;;;6.15;;
13419;SDS011;6781;58.440;15.470;2023-05-16T07:24:02;6.45;;;5.85;;
13419;SDS011;6781;58.440;15.470;2023-05-16T07:26:40;6.75;;;6.07;;
13419;SDS011;6781;58.440;15.470;2023-05-16T07:29:10;7.15;;;5.63;;
13419;SDS011;6781;58.440;15.470;2023-05-16T07:31:47;6.18;;;5.57;;
13419;SDS011;6781;58.440;15.470;2023-05-16T07:34:16;7.18;;;5.47;;
13419;SDS011;6781;58.440;15.470;2023-05-16T07:36:52;5.75;;;5.18;;
13419;SDS011;6781;58.440;15.470;2023-05-16T07:39:19;5.85;;;5.28;;
13419;SDS011;6781;58.440;15.470;2023-05-16T07:41:46;6.20;;;5.40;;
13419;SDS011;6781;58.440;15.470;2023-05-16T07:44:14;6.18;;;5.57;;
13419;SDS011;6781;58.440;15.470;2023-05-16T07:46:41;8.13;;;5.57;;
13419;SDS011;6781;58.440;15.470;2023-05-16T07:49:12;8.02;;;6.15;;
13419;SDS011;6781;58.440;15.470;2023-05-16T07:51:41;6.03;;;5.32;;
13419;SDS011;6781;58.440;15.470;2023-05-16T07:54:12;6.00;;;5.40;;
13419;SDS011;6781;58.440;15.470;2023-05-16T07:56:41;6.93;;;5.50;;
13419;SDS011;6781;58.440;15.470;2023-05-16T07:59:35;5.32;;;4.82;;
13419;SDS011;6781;58.440;15.470;2023-05-16T08:02:02;7.47;;;5.70;;
13419;SDS011;6781;58.440;15.470;2023-05-16T08:04:37;6.13;;;5.15;;
13419;SDS011;6781;58.440;15.470;2023-05-16T08:07:08;6.57;;;4.78;;
13419;SDS011;6781;58.440;15.470;2023-05-16T08:09:37;5.18;;;4.75;;
13419;SDS011;6781;58.440;15.470;2023-05-16T08:12:13;6.45;;;5.03;;
13419;SDS011;6781;58.440;15.470;2023-05-16T08:14:52;5.25;;;4.85;;
13419;SDS011;6781;58.440;15.470;2023-05-16T08:17:19;5.72;;;5.22;;
13419;SDS011;6781;58.440;15.470;2023-05-16T08:19:46;5.22;;;4.72;;
13419;SDS011;6781;58.440;15.470;2023-05-16T08:22:15;7.72;;;4.90;;
13419;SDS011;6781;58.440;15.470;2023-05-16T08:24:42;8.27;;;5.20;;
13419;SDS011;6781;58.440;15.470;2023-05-16T08:27:09;5.28;;;4.85;;
13419;SDS011;6781;58.440;15.470;2023-05-16T08:29:38;5.20;;;4.72;;
13419;SDS011;6781;58.440;15.470;2023-05-16T08:32:13;8.35;;;4.70;;
13419;SDS011;6781;58.440;15.470;2023-05-16T08:34:47;5.25;;;4.85;;
13419;SDS011;6781;58.440;15.470;2023-05-16T08:37:16;6.05;;;4.80;;
13419;SDS011;6781;58.440;15.470;2023-05-16T08:39:43;6.50;;;5.00;;
13419;SDS011;6781;58.440;15.470;2023-05-16T08:42:13;5.45;;;4.65;;
13419;SDS011;6781;58.440;15.470;2023-05-16T08:44:43;4.85;;;4.45;;
13419;SDS011;6781;58.440;15.470;2023-05-16T08:47:30;4.70;;;4.32;;
13419;SDS011;6781;58.440;15.470;2023-05-16T08:49:58;6.88;;;4.60;;
13419;SDS011;6781;58.440;15.470;2023-05-16T08:52:31;4.93;;;4.10;;
13419;SDS011;6781;58.440;15.470;2023-05-16T08:55:00;4.65;;;3.97;;
13419;SDS011;6781;58.440;15.470;2023-05-16T08:57:33;5.43;;;3.90;;
13419;SDS011;6781;58.440;15.470;2023-05-16T09:00:02;4.15;;;3.80;;
13419;SDS011;6781;58.440;15.470;2023-05-16T09:02:35;4.10;;;3.80;;
13419;SDS011;6781;58.440;15.470;2023-05-16T09:05:15;5.47;;;3.50;;
13419;SDS011;6781;58.440;15.470;2023-05-16T09:07:47;3.30;;;3.10;;
13419;SDS011;6781;58.440;15.470;2023-05-16T09:10:14;3.40;;;3.10;;
13419;SDS011;6781;58.440;15.470;2023-05-16T09:12:43;5.40;;;3.47;;
13419;SDS011;6781;58.440;15.470;2023-05-16T09:15:22;3.63;;;3.33;;
13419;SDS011;6781;58.440;15.470;2023-05-16T09:17:58;3.28;;;2.90;;
13419;SDS011;6781;58.440;15.470;2023-05-16T09:20:29;3.88;;;2.80;;
13419;SDS011;6781;58.440;15.470;2023-05-16T09:23:02;3.72;;;3.00;;
13419;SDS011;6781;58.440;15.470;2023-05-16T09:25:51;3.38;;;3.08;;
13419;SDS011;6781;58.440;15.470;2023-05-16T09:28:41;3.40;;;3.03;;
13419;SDS011;6781;58.440;15.470;2023-05-16T09:31:21;4.43;;;3.47;;
13419;SDS011;6781;58.440;15.470;2023-05-16T09:33:50;3.20;;;2.90;;
13419;SDS011;6781;58.440;15.470;2023-05-16T09:36:18;3.08;;;2.88;;
13419;SDS011;6781;58.440;15.470;2023-05-16T09:38:46;2.65;;;2.50;;
13419;SDS011;6781;58.440;15.470;2023-05-16T09:41:13;3.75;;;3.25;;
13419;SDS011;6781;58.440;15.470;2023-05-16T09:43:44;3.28;;;3.08;;
13419;SDS011;6781;58.440;15.470;2023-05-16T09:46:11;3.30;;;3.00;;
13419;SDS011;6781;58.440;15.470;2023-05-16T09:48:40;3.80;;;3.05;;
13419;SDS011;6781;58.440;15.470;2023-05-16T09:51:13;3.10;;;2.88;;
13419;SDS011;6781;58.440;15.470;2023-05-16T09:57:08;4.38;;;3.10;;
13419;SDS011;6781;58.440;15.470;2023-05-16T09:59:47;4.05;;;2.95;;
13419;SDS011;6781;58.440;15.470;2023-05-16T10:02:15;4.55;;;3.00;;
13419;SDS011;6781;58.440;15.470;2023-05-16T10:04:43;3.45;;;3.15;;
13419;SDS011;6781;58.440;15.470;2023-05-16T10:07:13;2.70;;;2.50;;
13419;SDS011;6781;58.440;15.470;2023-05-16T10:09:41;4.68;;;3.15;;
13419;SDS011;6781;58.440;15.470;2023-05-16T10:12:11;3.65;;;3.22;;
13419;SDS011;6781;58.440;15.470;2023-05-16T10:14:40;3.28;;;2.67;;
13419;SDS011;6781;58.440;15.470;2023-05-16T10:17:11;2.78;;;2.67;;
13419;SDS011;6781;58.440;15.470;2023-05-16T10:19:39;3.40;;;3.10;;
13419;SDS011;6781;58.440;15.470;2023-05-16T10:22:07;2.80;;;2.63;;
13419;SDS011;6781;58.440;15.470;2023-05-16T10:24:38;4.43;;;2.70;;
13419;SDS011;6781;58.440;15.470;2023-05-16T10:27:19;3.90;;;2.92;;
13419;SDS011;6781;58.440;15.470;2023-05-16T10:29:47;3.20;;;2.90;;
13419;SDS011;6781;58.440;15.470;2023-05-16T10:32:15;3.65;;;3.10;;
13419;SDS011;6781;58.440;15.470;2023-05-16T10:34:44;3.10;;;2.90;;
13419;SDS011;6781;58.440;15.470;2023-05-16T10:37:12;3.28;;;2.90;;
13419;SDS011;6781;58.440;15.470;2023-05-16T10:39:41;3.50;;;3.20;;
13419;SDS011;6781;58.440;15.470;2023-05-16T10:42:20;2.83;;;2.63;;
13419;SDS011;6781;58.440;15.470;2023-05-16T10:44:48;2.97;;;2.78;;
13419;SDS011;6781;58.440;15.470;2023-05-16T10:47:20;3.55;;;2.70;;
13419;SDS011;6781;58.440;15.470;2023-05-16T10:49:49;3.08;;;2.78;;
13419;SDS011;6781;58.440;15.470;2023-05-16T10:52:16;3.30;;;2.83;;
13419;SDS011;6781;58.440;15.470;2023-05-16T10:54:49;2.90;;;2.70;;
13419;SDS011;6781;58.440;15.470;2023-05-16T10:57:17;4.40;;;2.85;;
13419;SDS011;6781;58.440;15.470;2023-05-16T10:59:50;3.10;;;2.80;;
13419;SDS011;6781;58.440;15.470;2023-05-16T11:02:22;3.63;;;2.95;;
13419;SDS011;6781;58.440;15.470;2023-05-16T11:04:50;3.03;;;2.80;;
13419;SDS011;6781;58.440;15.470;2023-05-16T11:07:19;3.72;;;3.15;;
13419;SDS011;6781;58.440;15.470;2023-05-16T11:10:03;3.67;;;2.75;;
13419;SDS011;6781;58.440;15.470;2023-05-16T11:12:37;3.60;;;2.80;;
13419;SDS011;6781;58.440;15.470;2023-05-16T11:15:23;4.05;;;2.88;;
13419;SDS011;6781;58.440;15.470;2023-05-16T11:18:02;2.85;;;2.65;;
13419;SDS011;6781;58.440;15.470;2023-05-16T11:20:31;3.20;;;2.83;;
13419;SDS011;6781;58.440;15.470;2023-05-16T11:26:00;5.10;;;2.83;;
13419;SDS011;6781;58.440;15.470;2023-05-16T11:28:28;3.22;;;2.85;;
13419;SDS011;6781;58.440;15.470;2023-05-16T11:30:57;5.95;;;3.00;;
13419;SDS011;6781;58.440;15.470;2023-05-16T11:33:25;3.38;;;3.08;;
13419;SDS011;6781;58.440;15.470;2023-05-16T11:36:03;3.55;;;2.88;;
13419;SDS011;6781;58.440;15.470;2023-05-16T11:38:31;3.20;;;2.85;;
13419;SDS011;6781;58.440;15.470;2023-05-16T11:41:03;3.50;;;3.17;;
13419;SDS011;6781;58.440;15.470;2023-05-16T11:43:36;3.65;;;3.30;;
13419;SDS011;6781;58.440;15.470;2023-05-16T11:46:06;3.40;;;3.10;;
13419;SDS011;6781;58.440;15.470;2023-05-16T11:48:36;3.88;;;3.10;;
13419;SDS011;6781;58.440;15.470;2023-05-16T11:51:03;5.40;;;3.30;;
13419;SDS011;6781;58.440;15.470;2023-05-16T11:53:31;5.03;;;3.55;;
13419;SDS011;6781;58.440;15.470;2023-05-16T11:55:58;4.65;;;3.67;;
13419;SDS011;6781;58.440;15.470;2023-05-16T11:58:26;3.83;;;3.40;;
13419;SDS011;6781;58.440;15.470;2023-05-16T12:00:53;5.97;;;3.75;;
13419;SDS011;6781;58.440;15.470;2023-05-16T12:03:22;4.20;;;3.80;;
13419;SDS011;6781;58.440;15.470;2023-05-16T12:05:49;5.43;;;3.70;;
13419;SDS011;6781;58.440;15.470;2023-05-16T12:08:17;3.80;;;3.40;;
13419;SDS011;6781;58.440;15.470;2023-05-16T12:10:45;4.90;;;3.90;;
13419;SDS011;6781;58.440;15.470;2023-05-16T12:13:17;4.32;;;3.53;;
13419;SDS011;6781;58.440;15.470;2023-05-16T12:15:45;4.15;;;3.85;;
13419;SDS011;6781;58.440;15.470;2023-05-16T12:18:12;4.82;;;4.40;;
13419;SDS011;6781;58.440;15.470;2023-05-16T12:20:41;5.55;;;4.13;;
13419;SDS011;6781;58.440;15.470;2023-05-16T12:23:09;5.50;;;3.45;;
13419;SDS011;6781;58.440;15.470;2023-05-16T12:25:37;6.53;;;3.63;;
13419;SDS011;6781;58.440;15.470;2023-05-16T12:28:10;5.90;;;3.85;;
13419;SDS011;6781;58.440;15.470;2023-05-16T12:30:39;5.07;;;4.35;;
13419;SDS011;6781;58.440;15.470;2023-05-16T12:33:09;4.95;;;4.03;;
13419;SDS011;6781;58.440;15.470;2023-05-16T12:35:38;6.82;;;4.00;;
13419;SDS011;6781;58.440;15.470;2023-05-16T12:38:08;4.40;;;3.90;;
13419;SDS011;6781;58.440;15.470;2023-05-16T12:40:36;4.40;;;4.00;;
13419;SDS011;6781;58.440;15.470;2023-05-16T12:43:04;4.40;;;3.88;;
13419;SDS011;6781;58.440;15.470;2023-05-16T12:45:38;4.97;;;4.47;;
13419;SDS011;6781;58.440;15.470;2023-05-16T12:48:10;5.25;;;4.28;;
13419;SDS011;6781;58.440;15.470;2023-05-16T12:50:40;5.80;;;4.60;;
13419;SDS011;6781;58.440;15.470;2023-05-16T12:53:11;7.40;;;4.70;;
13419;SDS011;6781;58.440;15.470;2023-05-16T12:55:39;5.20;;;4.72;;
13419;SDS011;6781;58.440;15.470;2023-05-16T12:58:06;4.60;;;4.22;;
13419;SDS011;6781;58.440;15.470;2023-05-16T13:00:33;4.88;;;4.30;;
13419;SDS011;6781;58.440;15.470;2023-05-16T13:03:02;8.35;;;4.25;;
13419;SDS011;6781;58.440;15.470;2023-05-16T13:05:29;5.22;;;4.07;;
13419;SDS011;6781;58.440;15.470;2023-05-16T13:07:56;4.32;;;3.92;;
13419;SDS011;6781;58.440;15.470;2023-05-16T13:10:24;4.43;;;3.80;;
13419;SDS011;6781;58.440;15.470;2023-05-16T13:12:51;4.72;;;4.35;;
13419;SDS011;6781;58.440;15.470;2023-05-16T13:15:22;4.50;;;4.20;;
13419;SDS011;6781;58.440;15.470;2023-05-16T13:17:49;4.75;;;4.25;;
13419;SDS011;6781;58.440;15.470;2023-05-16T13:20:17;5.03;;;4.53;;
13419;SDS011;6781;58.440;15.470;2023-05-16T13:22:45;5.13;;;4.72;;
13419;SDS011;6781;58.440;15.470;2023-05-16T13:25:12;4.68;;;4.22;;
13419;SDS011;6781;58.440;15.470;2023-05-16T13:27:41;6.82;;;4.63;;
13419;SDS011;6781;58.440;15.470;2023-05-16T13:30:08;5.43;;;4.93;;
13419;SDS011;6781;58.440;15.470;2023-05-16T13:32:35;5.10;;;4.40;;
13419;SDS011;6781;58.440;15.470;2023-05-16T13:35:02;4.30;;;4.00;;
13419;SDS011;6781;58.440;15.470;2023-05-16T13:37:30;4.13;;;3.80;;
13419;SDS011;6781;58.440;15.470;2023-05-16T13:39:57;4.13;;;3.80;;
13419;SDS011;6781;58.440;15.470;2023-05-16T13:42:26;4.65;;;3.88;;
13419;SDS011;6781;58.440;15.470;2023-05-16T13:44:54;5.00;;;4.60;;
13419;SDS011;6781;58.440;15.470;2023-05-16T13:47:23;5.00;;;4.10;;
13419;SDS011;6781;58.440;15.470;2023-05-16T13:49:50;4.80;;;4.40;;
13419;SDS011;6781;58.440;15.470;2023-05-16T13:52:19;4.50;;;4.10;;
13419;SDS011;6781;58.440;15.470;2023-05-16T13:54:46;4.97;;;3.80;;
13419;SDS011;6781;58.440;15.470;2023-05-16T13:57:13;5.00;;;4.05;;
13419;SDS011;6781;58.440;15.470;2023-05-16T13:59:41;4.25;;;3.58;;
13419;SDS011;6781;58.440;15.470;2023-05-16T14:02:11;3.50;;;3.17;;
13419;SDS011;6781;58.440;15.470;2023-05-16T14:04:38;5.72;;;3.92;;
13419;SDS011;6781;58.440;15.470;2023-05-16T14:07:05;3.83;;;3.35;;
13419;SDS011;6781;58.440;15.470;2023-05-16T14:09:35;3.85;;;3.55;;
13419;SDS011;6781;58.440;15.470;2023-05-16T14:12:03;4.22;;;3.83;;
13419;SDS011;6781;58.440;15.470;2023-05-16T14:14:34;4.47;;;3.45;;
13419;SDS011;6781;58.440;15.470;2023-05-16T14:17:02;6.18;;;3.97;;
13419;SDS011;6781;58.440;15.470;2023-05-16T14:19:39;3.72;;;3.42;;
13419;SDS011;6781;58.440;15.470;2023-05-16T14:22:09;4.32;;;3.47;;
13419;SDS011;6781;58.440;15.470;2023-05-16T14:24:36;4.05;;;3.63;;
13419;SDS011;6781;58.440;15.470;2023-05-16T14:27:05;4.15;;;3.72;;
13419;SDS011;6781;58.440;15.470;2023-05-16T14:29:36;4.25;;;3.70;;
13419;SDS011;6781;58.440;15.470;2023-05-16T14:32:03;5.97;;;3.50;;
13419;SDS011;6781;58.440;15.470;2023-05-16T14:34:32;3.63;;;3.33;;
13419;SDS011;6781;58.440;15.470;2023-05-16T14:37:01;5.38;;;3.50;;
13419;SDS011;6781;58.440;15.470;2023-05-16T14:39:28;3.78;;;3.47;;
13419;SDS011;6781;58.440;15.470;2023-05-16T14:41:55;5.78;;;3.60;;
13419;SDS011;6781;58.440;15.470;2023-05-16T14:44:22;4.18;;;3.63;;
13419;SDS011;6781;58.440;15.470;2023-05-16T14:46:49;3.95;;;3.50;;
13419;SDS011;6781;58.440;15.470;2023-05-16T14:49:16;4.25;;;3.85;;
13419;SDS011;6781;58.440;15.470;2023-05-16T14:51:45;6.13;;;3.80;;
13419;SDS011;6781;58.440;15.470;2023-05-16T14:54:15;5.95;;;3.38;;
13419;SDS011;6781;58.440;15.470;2023-05-16T14:56:43;5.80;;;3.47;;
13419;SDS011;6781;58.440;15.470;2023-05-16T14:59:10;5.35;;;3.30;;
13419;SDS011;6781;58.440;15.470;2023-05-16T15:01:38;5.55;;;3.75;;
13419;SDS011;6781;58.440;15.470;2023-05-16T15:04:05;6.05;;;3.42;;
13419;SDS011;6781;58.440;15.470;2023-05-16T15:06:35;4.38;;;3.15;;
13419;SDS011;6781;58.440;15.470;2023-05-16T15:09:03;4.35;;;3.33;;
13419;SDS011;6781;58.440;15.470;2023-05-16T15:11:33;3.83;;;3.40;;
13419;SDS011;6781;58.440;15.470;2023-05-16T15:14:05;4.10;;;3.67;;
13419;SDS011;6781;58.440;15.470;2023-05-16T15:16:35;3.40;;;2.90;;
13419;SDS011;6781;58.440;15.470;2023-05-16T15:19:06;5.10;;;3.67;;
13419;SDS011;6781;58.440;15.470;2023-05-16T15:21:34;4.07;;;3.17;;
13419;SDS011;6781;58.440;15.470;2023-05-16T15:24:01;4.45;;;3.03;;
13419;SDS011;6781;58.440;15.470;2023-05-16T15:26:32;4.45;;;3.13;;
13419;SDS011;6781;58.440;15.470;2023-05-16T15:28:59;3.20;;;2.90;;